Time;durP1;ratioP1;P1;durP2;ratioP2;P2;SDS_P1;SDS_P2;PMS_P1;PMS_P2;Temp;Humidity;BMP_temperature;BMP_pressure;BME280_temperature;BME280_humidity;BME280_pressure;Samples;Min_cycle;Max_cycle;Signal;HPM_P1;HPM_P2
2021/04/24 00:00:22;;;;;;;10.70;4.70;;;9.70;71.00;;;;;;5050955;28;20085;-82
2021/04/24 00:02:49;;;;;;;15.10;5.57;;;9.60;70.40;;;;;;5052094;28;20414;-81
2021/04/24 00:05:40;;;;;;;7.20;4.30;;;9.60;70.80;;;;;;5052765;28;20048;-82
2021/04/24 00:08:09;;;;;;;9.23;4.40;;;9.60;71.60;;;;;;5043598;28;20047;-82
2021/04/24 00:10:38;;;;;;;12.30;4.33;;;9.50;71.10;;;;;;5045131;28;20043;-80
2021/04/24 00:13:06;;;;;;;10.60;4.28;;;9.50;71.30;;;;;;5042418;28;20033;-80
2021/04/24 00:15:33;;;;;;;9.10;4.10;;;9.40;71.60;;;;;;5054514;28;20021;-82
2021/04/24 00:17:58;;;;;;;9.70;4.30;;;9.40;71.80;;;;;;5035859;28;20479;-80
2021/04/24 00:20:25;;;;;;;9.63;4.03;;;9.50;72.00;;;;;;5053148;28;20025;-80
2021/04/24 00:22:51;;;;;;;8.23;4.57;;;9.40;72.00;;;;;;5036021;28;20075;-80
2021/04/24 00:25:17;;;;;;;13.27;4.83;;;9.40;72.10;;;;;;5036489;28;20036;-80
2021/04/24 00:27:43;;;;;;;14.33;3.87;;;9.40;72.50;;;;;;5034583;28;20047;-80
2021/04/24 00:30:11;;;;;;;13.37;4.43;;;9.30;72.80;;;;;;5033968;28;20021;-81
2021/04/24 00:32:38;;;;;;;10.10;4.50;;;9.30;72.60;;;;;;5034883;28;20067;-80
2021/04/24 00:35:04;;;;;;;12.97;5.03;;;9.30;72.30;;;;;;5034482;28;20355;-80
2021/04/24 00:37:30;;;;;;;10.27;4.10;;;9.20;71.70;;;;;;5052937;28;20070;-80
2021/04/24 00:39:56;;;;;;;14.27;4.40;;;9.20;71.50;;;;;;5052406;28;20017;-82
2021/04/24 00:42:21;;;;;;;10.33;4.23;;;9.20;71.30;;;;;;5034195;28;20535;-80
2021/04/24 00:44:49;;;;;;;9.47;3.97;;;9.30;70.50;;;;;;5034940;28;20028;-80
2021/04/24 00:47:18;;;;;;;11.87;4.87;;;9.20;69.90;;;;;;5052824;28;20021;-80
2021/04/24 00:49:44;;;;;;;10.03;4.90;;;9.20;70.10;;;;;;5052694;28;20104;-81
2021/04/24 00:52:09;;;;;;;10.83;4.93;;;9.20;69.60;;;;;;5052567;28;20060;-82
2021/04/24 00:54:35;;;;;;;12.90;4.20;;;9.10;69.40;;;;;;5052443;28;20028;-81
2021/04/24 00:57:01;;;;;;;8.40;3.73;;;9.10;69.20;;;;;;5052919;28;20021;-80
2021/04/24 00:59:28;;;;;;;7.80;4.17;;;9.10;69.10;;;;;;5034204;28;20024;-83
2021/04/24 01:01:54;;;;;;;8.17;3.37;;;9.00;68.70;;;;;;5052424;28;20021;-82
2021/04/24 01:04:20;;;;;;;7.17;3.33;;;9.10;67.60;;;;;;5052605;28;20048;-82
2021/04/24 01:06:46;;;;;;;10.53;3.07;;;9.10;67.40;;;;;;5052539;28;20021;-82
2021/04/24 01:09:11;;;;;;;10.60;3.57;;;9.10;66.80;;;;;;5033189;28;20052;-82
2021/04/24 01:11:37;;;;;;;7.93;3.30;;;9.00;65.10;;;;;;5034166;28;20520;-82
2021/04/24 01:14:03;;;;;;;7.07;3.20;;;9.00;64.80;;;;;;5035115;28;20478;-83
2021/04/24 01:16:29;;;;;;;10.17;3.10;;;9.10;63.90;;;;;;5056034;28;20025;-84
2021/04/24 01:18:55;;;;;;;6.00;2.60;;;9.00;63.60;;;;;;5054899;28;20028;-82
2021/04/24 01:21:23;;;;;;;7.40;2.80;;;8.90;63.70;;;;;;5037838;28;20075;-82
2021/04/24 01:23:50;;;;;;;10.03;2.67;;;8.90;63.90;;;;;;5037719;28;20032;-84
2021/04/24 01:26:16;;;;;;;7.60;2.67;;;8.80;63.90;;;;;;5055647;28;20096;-80
2021/04/24 01:28:42;;;;;;;6.53;2.67;;;8.80;63.50;;;;;;5055659;28;20044;-80
2021/04/24 01:31:08;;;;;;;6.30;2.47;;;8.90;63.20;;;;;;5036498;28;20025;-82
2021/04/24 01:33:33;;;;;;;8.00;2.60;;;8.80;63.40;;;;;;5037679;28;20028;-83
2021/04/24 01:35:59;;;;;;;5.73;2.27;;;8.80;63.40;;;;;;5055182;28;20365;-83
2021/04/24 01:38:26;;;;;;;8.60;2.50;;;8.60;63.40;;;;;;5037333;28;20120;-82
2021/04/24 01:40:51;;;;;;;8.53;2.30;;;8.60;63.80;;;;;;5054686;28;20051;-83
2021/04/24 01:43:17;;;;;;;5.27;2.50;;;8.50;64.20;;;;;;5055307;28;20017;-82
2021/04/24 01:45:43;;;;;;;8.90;2.50;;;8.50;64.40;;;;;;5037230;28;20102;-82
2021/04/24 01:48:09;;;;;;;6.63;2.77;;;8.50;64.30;;;;;;5055486;28;20029;-82
2021/04/24 01:50:41;;;;;;;7.13;2.60;;;8.50;64.50;;;;;;5035944;28;20090;-82
2021/04/24 01:53:09;;;;;;;6.80;2.97;;;8.50;64.60;;;;;;5055424;28;20100;-82
2021/04/24 01:55:36;;;;;;;6.37;2.33;;;8.40;64.60;;;;;;5036343;28;20024;-83
2021/04/24 01:58:06;;;;;;;6.87;2.43;;;8.50;64.60;;;;;;5036610;28;20111;-82
2021/04/24 02:00:33;;;;;;;;;;;8.40;64.80;;;;;;5054702;28;20028;-82
2021/04/24 02:03:02;;;;;;;5.93;2.30;;;8.40;64.60;;;;;;5036918;28;19951;-83
2021/04/24 02:05:28;;;;;;;5.35;2.20;;;8.40;64.40;;;;;;5054648;28;20036;-83
2021/04/24 02:07:56;;;;;;;6.63;2.60;;;8.30;64.80;;;;;;5054845;28;20182;-83
2021/04/24 02:10:23;;;;;;;7.03;2.37;;;8.30;65.60;;;;;;5054731;28;20106;-83
2021/04/24 02:12:48;;;;;;;6.80;2.40;;;8.40;65.10;;;;;;5036618;28;20394;-82
2021/04/24 02:15:14;;;;;;;5.67;2.30;;;8.40;64.80;;;;;;5054910;28;20041;-82
2021/04/24 02:17:40;;;;;;;10.23;2.37;;;8.30;65.00;;;;;;5036069;28;20025;-82
2021/04/24 02:20:06;;;;;;;6.93;2.30;;;8.40;65.10;;;;;;5053639;28;20146;-82
2021/04/24 02:22:32;;;;;;;6.13;2.30;;;8.30;65.10;;;;;;5037008;28;20028;-82
2021/04/24 02:25:00;;;;;;;8.30;2.27;;;8.20;65.50;;;;;;5036828;28;20017;-83
2021/04/24 02:27:27;;;;;;;7.13;2.60;;;8.20;65.80;;;;;;5036989;28;20064;-83
2021/04/24 02:29:54;;;;;;;8.70;2.50;;;8.20;66.10;;;;;;5036239;28;20032;-84
2021/04/24 02:32:23;;;;;;;7.53;2.40;;;8.10;66.30;;;;;;5037275;28;20104;-82
2021/04/24 02:34:49;;;;;;;6.17;2.57;;;8.10;67.20;;;;;;5036691;28;20029;-84
2021/04/24 02:37:16;;;;;;;7.60;2.57;;;8.10;66.80;;;;;;5036915;28;20025;-84
2021/04/24 02:39:43;;;;;;;8.40;2.80;;;8.10;67.60;;;;;;5036399;28;20028;-82
2021/04/24 02:42:13;;;;;;;7.03;2.70;;;8.10;67.00;;;;;;5036975;28;20017;-82
2021/04/24 02:44:40;;;;;;;8.60;2.70;;;8.00;66.90;;;;;;5055153;28;20025;-83
2021/04/24 02:47:06;;;;;;;8.20;3.20;;;8.10;66.70;;;;;;5037378;28;20120;-82
2021/04/24 02:49:32;;;;;;;6.20;2.50;;;8.00;67.40;;;;;;5036558;28;20063;-83
2021/04/24 02:51:59;;;;;;;8.93;2.40;;;7.90;67.60;;;;;;5054875;28;20025;-83
2021/04/24 02:54:25;;;;;;;6.27;2.90;;;7.90;68.00;;;;;;5036040;28;20056;-82
2021/04/24 02:56:51;;;;;;;8.00;2.90;;;7.90;68.10;;;;;;5054604;28;20119;-82
2021/04/24 02:59:17;;;;;;;7.43;3.10;;;7.90;68.10;;;;;;5035664;28;20040;-83
2021/04/24 03:01:44;;;;;;;7.13;3.00;;;7.90;68.60;;;;;;5054844;28;20040;-82
2021/04/24 03:04:11;;;;;;;9.10;2.70;;;7.90;68.50;;;;;;5054099;28;20482;-84
2021/04/24 03:06:36;;;;;;;7.87;3.03;;;7.90;68.50;;;;;;5053929;28;20024;-82
2021/04/24 03:09:03;;;;;;;10.57;3.13;;;7.80;68.60;;;;;;5053622;28;20432;-82
2021/04/24 03:11:29;;;;;;;7.27;2.93;;;7.90;68.70;;;;;;5036103;28;20059;-82
2021/04/24 03:13:56;;;;;;;5.90;2.90;;;7.80;68.80;;;;;;5054125;28;20028;-82
2021/04/24 03:16:22;;;;;;;8.13;3.33;;;7.80;69.10;;;;;;5054384;28;20551;-84
2021/04/24 03:18:47;;;;;;;6.90;2.40;;;7.70;69.70;;;;;;5054090;28;20029;-86
2021/04/24 03:21:13;;;;;;;6.33;3.20;;;7.70;69.70;;;;;;5035804;28;20025;-83
2021/04/24 03:23:39;;;;;;;7.23;3.10;;;7.70;69.70;;;;;;5054170;28;20021;-82
2021/04/24 03:26:04;;;;;;;7.37;2.90;;;7.60;70.20;;;;;;5036449;28;20118;-83
2021/04/24 03:28:30;;;;;;;6.83;3.20;;;7.60;70.40;;;;;;5035656;28;20565;-82
2021/04/24 03:30:56;;;;;;;9.00;3.30;;;7.70;70.60;;;;;;5047026;28;20151;-83
2021/04/24 03:33:21;;;;;;;11.53;2.90;;;7.60;70.90;;;;;;5035636;28;20071;-82
2021/04/24 03:35:47;;;;;;;11.87;3.10;;;7.60;71.00;;;;;;5054046;28;20104;-82
2021/04/24 03:38:14;;;;;;;8.00;2.90;;;7.50;71.40;;;;;;5053511;28;20032;-83
2021/04/24 03:40:40;;;;;;;8.43;3.10;;;7.50;71.70;;;;;;5052880;28;20025;-82
2021/04/24 03:43:05;;;;;;;14.60;3.20;;;7.50;71.60;;;;;;5035079;28;20023;-86
2021/04/24 03:45:31;;;;;;;10.83;3.40;;;7.50;72.00;;;;;;5035506;28;20462;-82
2021/04/24 03:47:57;;;;;;;7.97;3.27;;;7.50;71.80;;;;;;5053813;28;20033;-82
2021/04/24 03:50:24;;;;;;;8.57;3.20;;;7.40;72.20;;;;;;5035174;28;20029;-83
2021/04/24 03:52:51;;;;;;;9.43;3.67;;;7.50;72.40;;;;;;5036737;28;20029;-83
2021/04/24 03:55:18;;;;;;;9.00;4.03;;;7.60;72.40;;;;;;5035559;28;20029;-84
2021/04/24 03:57:45;;;;;;;7.57;3.53;;;7.60;72.60;;;;;;5053465;28;20025;-82
2021/04/24 04:00:13;;;;;;;9.00;3.40;;;7.40;73.10;;;;;;5033259;28;20113;-85
2021/04/24 04:02:59;;;;;;;9.60;3.33;;;7.50;73.30;;;;;;5033202;28;20021;-87
2021/04/24 04:05:27;;;;;;;8.33;4.17;;;7.50;73.40;;;;;;5051043;28;20024;-86
2021/04/24 04:07:53;;;;;;;11.40;4.20;;;7.40;73.50;;;;;;5032865;28;20032;-87
2021/04/24 04:10:23;;;;;;;8.70;3.50;;;7.30;74.20;;;;;;5031959;28;20474;-87
2021/04/24 04:12:49;;;;;;;10.00;3.53;;;7.40;74.10;;;;;;5032466;28;20031;-86
2021/04/24 04:15:17;;;;;;;12.83;3.43;;;7.40;74.40;;;;;;5050674;28;20100;-86
2021/04/24 04:17:54;;;;;;;11.83;4.17;;;7.30;74.60;;;;;;5032955;28;20052;-87
2021/04/24 04:20:19;;;;;;;11.57;3.80;;;7.30;75.00;;;;;;5029462;28;20056;-86
2021/04/24 04:22:45;;;;;;;11.70;4.07;;;7.30;75.10;;;;;;5023493;28;20500;-87
2021/04/24 04:25:12;;;;;;;8.40;3.83;;;7.30;75.40;;;;;;5033766;28;20090;-83
2021/04/24 04:27:37;;;;;;;12.97;4.47;;;7.30;77.60;;;;;;5035029;28;20049;-82
2021/04/24 04:30:07;;;;;;;10.80;4.37;;;7.00;79.50;;;;;;5052685;28;20032;-83
2021/04/24 04:32:32;;;;;;;11.37;4.83;;;6.90;79.80;;;;;;5034652;28;20040;-83
2021/04/24 04:34:59;;;;;;;9.73;4.43;;;6.70;80.00;;;;;;5035179;28;20021;-83
2021/04/24 04:37:25;;;;;;;13.33;5.23;;;6.60;80.10;;;;;;5053133;28;20481;-84
2021/04/24 04:39:51;;;;;;;11.33;4.50;;;6.60;80.40;;;;;;5036203;28;20085;-84
2021/04/24 04:42:17;;;;;;;12.57;4.20;;;6.60;80.40;;;;;;5056069;28;20123;-84
2021/04/24 04:44:42;;;;;;;10.57;4.47;;;6.60;80.70;;;;;;5038601;28;20478;-84
2021/04/24 04:47:08;;;;;;;12.00;4.67;;;6.60;81.10;;;;;;5038247;28;20017;-84
2021/04/24 04:49:33;;;;;;;15.23;4.60;;;6.50;81.40;;;;;;5040798;28;20096;-85
2021/04/24 04:51:59;;;;;;;12.27;4.33;;;6.50;81.80;;;;;;5065215;28;20021;-85
2021/04/24 04:54:24;;;;;;;12.87;4.77;;;6.70;81.00;;;;;;5043376;28;20048;-84
2021/04/24 04:56:50;;;;;;;10.80;4.83;;;6.90;81.00;;;;;;5058328;28;20021;-84
2021/04/24 04:59:16;;;;;;;11.83;4.80;;;7.00;80.60;;;;;;5039147;28;20419;-85
2021/04/24 05:01:41;;;;;;;13.60;4.63;;;7.00;80.40;;;;;;5057865;28;20621;-84
2021/04/24 05:04:07;;;;;;;13.80;4.70;;;7.00;80.80;;;;;;5056944;28;20044;-84
2021/04/24 05:06:33;;;;;;;10.43;4.77;;;7.00;80.80;;;;;;5037983;28;20448;-85
2021/04/24 05:08:58;;;;;;;15.30;5.57;;;7.10;81.20;;;;;;5054925;28;20106;-83
2021/04/24 05:11:24;;;;;;;16.80;5.80;;;7.10;80.80;;;;;;5068122;22;20123;-84
2021/04/24 05:13:49;;;;;;;13.07;5.13;;;7.10;81.00;;;;;;5054849;28;20036;-84
2021/04/24 05:16:15;;;;;;;12.87;5.13;;;7.10;81.20;;;;;;5036216;28;20104;-83
2021/04/24 05:18:41;;;;;;;14.33;4.97;;;7.10;81.20;;;;;;5050525;28;20049;-83
2021/04/24 05:21:07;;;;;;;14.50;5.10;;;7.20;81.10;;;;;;5036301;28;20028;-83
2021/04/24 05:23:32;;;;;;;16.37;5.93;;;7.30;81.00;;;;;;5055155;28;20025;-84
2021/04/24 05:25:58;;;;;;;16.03;6.47;;;7.20;81.30;;;;;;5036250;28;20073;-84
2021/04/24 05:28:23;;;;;;;14.47;5.70;;;7.30;81.30;;;;;;5056277;28;20025;-83
2021/04/24 05:30:49;;;;;;;12.63;5.27;;;7.30;81.40;;;;;;5054493;28;20362;-83
2021/04/24 05:33:15;;;;;;;12.27;5.33;;;7.30;81.70;;;;;;5055681;28;20370;-82
2021/04/24 05:35:40;;;;;;;15.07;5.80;;;7.30;81.90;;;;;;5055085;28;20029;-82
2021/04/24 05:38:06;;;;;;;13.13;5.53;;;7.40;81.90;;;;;;5037219;28;20049;-82
2021/04/24 05:40:32;;;;;;;14.17;5.80;;;7.50;81.80;;;;;;5055414;28;20057;-83
2021/04/24 05:42:57;;;;;;;14.13;5.47;;;7.50;82.00;;;;;;5038084;28;20033;-82
2021/04/24 05:45:23;;;;;;;14.07;5.93;;;7.50;81.70;;;;;;5055193;28;20025;-83
2021/04/24 05:47:51;;;;;;;16.67;5.73;;;7.50;81.90;;;;;;5054660;28;20319;-82
2021/04/24 05:50:23;;;;;;;17.50;6.07;;;7.50;82.20;;;;;;5036743;28;20028;-82
2021/04/24 05:52:49;;;;;;;12.60;5.33;;;7.60;82.20;;;;;;5038170;28;20021;-83
2021/04/24 05:55:15;;;;;;;17.13;6.73;;;7.60;82.50;;;;;;5055242;28;20029;-82
2021/04/24 05:57:42;;;;;;;15.93;6.30;;;7.70;82.60;;;;;;5055066;28;20025;-83
2021/04/24 06:00:11;;;;;;;13.53;5.63;;;7.80;82.30;;;;;;5053961;28;20040;-82
2021/04/24 06:02:37;;;;;;;12.43;5.95;;;7.80;82.40;;;;;;5055486;28;20031;-83
2021/04/24 06:05:05;;;;;;;12.80;5.90;;;7.90;82.50;;;;;;5055293;28;20032;-83
2021/04/24 06:07:30;;;;;;;14.47;5.53;;;8.00;82.20;;;;;;5055541;28;20434;-82
2021/04/24 06:09:56;;;;;;;13.70;6.03;;;8.10;82.20;;;;;;5054628;28;20078;-83
2021/04/24 06:12:22;;;;;;;13.47;5.70;;;8.10;81.90;;;;;;5054575;28;20033;-82
2021/04/24 06:14:47;;;;;;;12.40;5.27;;;8.20;82.10;;;;;;5036957;28;20125;-82
2021/04/24 06:17:13;;;;;;;13.90;5.53;;;8.20;82.30;;;;;;5036922;28;20036;-83
2021/04/24 06:19:38;;;;;;;11.30;4.90;;;8.20;82.50;;;;;;5053508;28;20035;-82
2021/04/24 06:22:04;;;;;;;10.47;4.97;;;8.20;82.30;;;;;;5035598;28;20041;-82
2021/04/24 06:24:30;;;;;;;14.10;4.83;;;8.30;82.50;;;;;;5052257;28;20028;-88
2021/04/24 06:26:55;;;;;;;11.97;5.47;;;8.30;82.40;;;;;;5052129;28;20028;-86
2021/04/24 06:29:21;;;;;;;13.93;6.37;;;8.30;82.50;;;;;;5051437;28;20056;-86
2021/04/24 06:31:46;;;;;;;15.97;6.03;;;8.40;82.40;;;;;;5034120;28;20025;-86
2021/04/24 06:34:12;;;;;;;10.10;5.10;;;8.40;82.40;;;;;;5052225;28;20083;-83
2021/04/24 06:36:38;;;;;;;18.73;5.80;;;8.40;82.50;;;;;;5038460;28;20340;-84
2021/04/24 06:39:18;;;;;;;12.27;5.33;;;8.40;82.40;;;;;;5039593;28;20024;-84
2021/04/24 06:41:44;;;;;;;11.37;5.00;;;8.40;82.70;;;;;;5036203;28;20083;-85
2021/04/24 06:44:10;;;;;;;11.23;4.70;;;8.50;82.30;;;;;;5053419;28;20120;-84
2021/04/24 06:46:38;;;;;;;14.40;5.00;;;8.50;83.00;;;;;;5034806;28;20132;-83
2021/04/24 06:49:03;;;;;;;11.33;4.97;;;8.50;84.80;;;;;;5034207;28;20470;-85
2021/04/24 06:51:29;;;;;;;11.13;5.00;;;8.40;83.80;;;;;;5034090;28;20112;-85
2021/04/24 06:53:55;;;;;;;13.30;4.70;;;8.50;83.10;;;;;;5036890;28;20078;-82
2021/04/24 06:56:20;;;;;;;9.90;4.83;;;8.60;82.40;;;;;;5038162;28;20021;-84
2021/04/24 06:58:46;;;;;;;10.67;5.00;;;8.60;82.10;;;;;;5037840;28;20025;-83
2021/04/24 07:01:12;;;;;;;12.43;5.50;;;8.70;81.60;;;;;;5054680;28;20377;-83
2021/04/24 07:03:38;;;;;;;11.77;5.10;;;8.70;81.30;;;;;;5034390;28;20040;-82
2021/04/24 07:06:05;;;;;;;9.93;4.80;;;8.60;80.80;;;;;;5055073;28;20021;-87
2021/04/24 07:08:30;;;;;;;10.33;5.30;;;8.60;81.30;;;;;;5035308;28;20021;-85
2021/04/24 07:10:56;;;;;;;11.00;4.70;;;8.60;80.40;;;;;;5051788;28;20465;-85
2021/04/24 07:13:22;;;;;;;12.80;5.63;;;8.70;80.10;;;;;;5034608;28;20452;-86
2021/04/24 07:15:47;;;;;;;10.03;5.27;;;8.70;80.10;;;;;;5052625;28;20032;-87
2021/04/24 07:18:13;;;;;;;11.73;5.17;;;8.70;80.40;;;;;;5030195;28;20410;-87
2021/04/24 07:20:39;;;;;;;10.67;5.07;;;8.80;79.90;;;;;;5018315;28;20110;-82
2021/04/24 07:23:05;;;;;;;13.67;5.40;;;8.80;80.30;;;;;;5014533;28;20668;-83
2021/04/24 07:25:30;;;;;;;17.47;6.33;;;8.80;79.70;;;;;;5032604;28;20108;-82
2021/04/24 07:27:56;;;;;;;12.60;4.83;;;8.90;78.70;;;;;;5032755;28;20028;-84
2021/04/24 07:30:22;;;;;;;14.10;5.13;;;9.00;79.00;;;;;;5016367;28;20470;-85
2021/04/24 07:32:48;;;;;;;10.83;5.27;;;9.00;78.60;;;;;;5052683;28;20029;-83
2021/04/24 07:35:14;;;;;;;11.67;5.47;;;9.00;77.10;;;;;;5046380;28;20032;-84
2021/04/24 07:37:40;;;;;;;11.80;5.30;;;8.90;76.80;;;;;;5034042;28;20049;-84
2021/04/24 07:40:07;;;;;;;13.97;5.17;;;8.80;76.80;;;;;;5033320;28;20025;-84
2021/04/24 07:42:33;;;;;;;12.40;4.77;;;8.90;77.30;;;;;;5015764;28;20026;-83
2021/04/24 07:44:58;;;;;;;8.57;4.33;;;8.90;76.60;;;;;;5024801;28;20043;-83
2021/04/24 07:47:24;;;;;;;10.27;4.67;;;9.00;75.60;;;;;;5035635;28;20068;-83
2021/04/24 07:49:52;;;;;;;10.50;4.40;;;9.00;74.90;;;;;;5033914;28;20414;-83
2021/04/24 07:52:19;;;;;;;8.77;3.93;;;9.10;75.40;;;;;;5015966;28;20021;-84
2021/04/24 07:54:45;;;;;;;9.93;4.20;;;9.20;74.00;;;;;;5014969;28;20060;-84
2021/04/24 07:57:12;;;;;;;10.87;4.90;;;9.20;74.70;;;;;;5031197;28;20045;-87
2021/04/24 07:59:38;;;;;;;8.60;4.10;;;9.20;74.40;;;;;;5012652;28;20033;-87
2021/04/24 08:02:03;;;;;;;8.53;3.87;;;9.20;75.20;;;;;;5031439;28;20091;-89
2021/04/24 08:04:29;;;;;;;10.87;4.80;;;9.30;75.70;;;;;;5013527;28;20089;-89
2021/04/24 08:06:55;;;;;;;9.73;4.37;;;9.30;74.30;;;;;;5013423;28;20399;-87
2021/04/24 08:09:20;;;;;;;8.97;3.60;;;9.30;73.20;;;;;;5012807;28;20034;-86
2021/04/24 08:11:46;;;;;;;6.67;3.60;;;9.20;73.10;;;;;;5028215;28;20477;-86
2021/04/24 08:14:12;;;;;;;11.20;4.70;;;9.30;73.00;;;;;;5051080;28;20082;-85
2021/04/24 08:16:37;;;;;;;8.67;4.20;;;9.30;75.00;;;;;;5050790;28;20037;-87
2021/04/24 08:19:03;;;;;;;11.50;4.00;;;9.30;73.60;;;;;;5033046;28;20445;-87
2021/04/24 08:21:30;;;;;;;9.80;4.10;;;9.30;74.80;;;;;;5051009;28;20113;-85
2021/04/24 08:24:34;;;;;;;11.80;4.47;;;9.30;75.20;;;;;;5046182;28;20017;-84
2021/04/24 08:27:00;;;;;;;10.63;4.00;;;9.20;75.20;;;;;;5048209;28;20052;-85
2021/04/24 08:29:26;;;;;;;8.67;4.40;;;9.30;74.30;;;;;;5053040;28;20032;-84
2021/04/24 08:31:51;;;;;;;8.47;3.57;;;9.10;74.10;;;;;;5038945;28;20026;-84
2021/04/24 08:34:20;;;;;;;7.57;3.30;;;9.20;73.90;;;;;;5034955;28;20148;-85
2021/04/24 08:36:45;;;;;;;9.47;3.30;;;9.20;72.70;;;;;;5016605;28;20029;-84
2021/04/24 08:39:11;;;;;;;13.73;3.80;;;9.20;72.10;;;;;;5033471;28;20036;-85
2021/04/24 08:41:37;;;;;;;6.47;3.13;;;9.20;72.50;;;;;;5034506;28;20025;-84
2021/04/24 08:44:03;;;;;;;6.20;2.50;;;9.30;71.00;;;;;;5034240;28;20152;-86
2021/04/24 08:46:29;;;;;;;5.50;3.10;;;9.40;70.50;;;;;;5034576;28;20025;-85
2021/04/24 08:48:56;;;;;;;7.90;2.90;;;9.50;70.30;;;;;;5015729;28;20032;-82
2021/04/24 08:51:24;;;;;;;7.37;3.10;;;9.30;69.20;;;;;;5032212;28;20056;-80
2021/04/24 08:53:51;;;;;;;4.67;2.33;;;9.40;69.60;;;;;;5034266;28;20104;-82
2021/04/24 08:56:24;;;;;;;6.57;2.97;;;9.50;69.90;;;;;;5017683;28;20033;-81
2021/04/24 08:58:51;;;;;;;6.63;2.50;;;9.60;70.30;;;;;;5016863;28;20454;-84
2021/04/24 09:01:17;;;;;;;5.83;2.50;;;9.70;69.90;;;;;;5033707;28;20036;-81
2021/04/24 09:03:43;;;;;;;6.30;2.50;;;9.70;69.40;;;;;;5034493;28;20025;-80
2021/04/24 09:06:08;;;;;;;6.10;2.60;;;9.80;68.10;;;;;;5034612;28;20026;-83
2021/04/24 09:08:34;;;;;;;5.37;2.40;;;9.80;67.70;;;;;;5035861;28;20060;-82
2021/04/24 09:11:03;;;;;;;4.40;2.20;;;9.90;68.30;;;;;;5033134;28;20042;-84
2021/04/24 09:13:30;;;;;;;;;;;9.90;68.00;;;;;;5037367;28;20415;-82
2021/04/24 09:15:56;;;;;;;5.40;3.07;;;9.90;67.20;;;;;;5036068;28;19905;-84
2021/04/24 09:18:24;;;;;;;5.50;2.50;;;10.10;67.40;;;;;;5028720;28;20025;-83
2021/04/24 09:21:03;;;;;;;4.17;2.10;;;10.20;67.30;;;;;;5056107;28;20108;-84
2021/04/24 09:23:33;;;;;;;7.60;2.88;;;10.10;66.70;;;;;;5053226;28;20075;-81
2021/04/24 09:26:07;;;;;;;6.37;3.00;;;10.10;67.20;;;;;;5055462;28;20078;-81
2021/04/24 09:28:35;;;;;;;7.63;3.23;;;10.20;66.90;;;;;;5036156;28;20024;-84
2021/04/24 09:31:29;;;;;;;5.87;2.77;;;10.00;66.00;;;;;;5054797;28;20083;-82
2021/04/24 09:34:02;;;;;;;7.50;2.93;;;10.10;67.00;;;;;;5055408;28;20095;-83
2021/04/24 09:36:36;;;;;;;5.27;2.17;;;10.20;65.90;;;;;;5037558;28;20072;-80
2021/04/24 09:39:09;;;;;;;4.73;2.50;;;10.10;65.40;;;;;;5053760;28;20481;-80
2021/04/24 09:41:38;;;;;;;5.97;2.80;;;10.10;64.60;;;;;;5052267;28;20112;-82
2021/04/24 09:44:08;;;;;;;6.23;2.70;;;10.00;65.00;;;;;;5054406;28;20017;-81
2021/04/24 09:46:35;;;;;;;5.67;2.40;;;10.20;65.80;;;;;;5053562;28;20116;-80
2021/04/24 09:49:28;;;;;;;5.57;2.30;;;10.20;64.00;;;;;;5053249;28;20029;-80
2021/04/24 09:52:05;;;;;;;7.40;3.00;;;10.30;64.70;;;;;;5054008;28;20428;-84
2021/04/24 09:54:37;;;;;;;4.60;2.87;;;10.20;63.30;;;;;;5054713;28;20025;-81
2021/04/24 09:57:10;;;;;;;6.77;2.43;;;10.30;63.70;;;;;;5054600;28;20025;-81
2021/04/24 09:59:57;;;;;;;5.77;2.93;;;10.40;64.20;;;;;;5053036;28;20079;-80
2021/04/24 10:02:40;;;;;;;5.10;2.60;;;10.50;64.30;;;;;;5053786;28;20490;-82
2021/04/24 10:05:06;;;;;;;9.53;4.10;;;10.60;64.40;;;;;;5054887;28;20017;-81
2021/04/24 10:07:40;;;;;;;7.30;4.17;;;10.60;64.90;;;;;;5053358;28;20017;-82
2021/04/24 10:10:08;;;;;;;7.73;3.33;;;10.70;65.00;;;;;;5052968;28;20078;-81
2021/04/24 10:12:34;;;;;;;8.10;3.10;;;10.60;63.90;;;;;;5054034;28;20486;-81
2021/04/24 10:15:00;;;;;;;6.43;3.33;;;10.60;64.10;;;;;;5054925;28;20025;-82
2021/04/24 10:17:27;;;;;;;5.43;2.90;;;10.70;64.30;;;;;;5035742;28;20553;-81
2021/04/24 10:19:53;;;;;;;6.47;2.90;;;10.70;64.40;;;;;;5053379;28;20021;-81
2021/04/24 10:22:24;;;;;;;7.17;2.80;;;10.80;64.50;;;;;;5050793;28;20021;-81
2021/04/24 10:24:50;;;;;;;5.17;2.80;;;10.90;64.60;;;;;;5050248;28;20044;-83
2021/04/24 10:27:18;;;;;;;7.87;3.07;;;10.90;63.80;;;;;;5045932;28;20021;-84
2021/04/24 10:29:46;;;;;;;7.00;3.37;;;10.90;64.20;;;;;;5035266;28;20028;-84
2021/04/24 10:32:13;;;;;;;7.10;2.93;;;10.80;62.70;;;;;;5019703;28;20192;-83
2021/04/24 10:34:38;;;;;;;7.07;3.60;;;10.90;63.50;;;;;;5035047;28;20021;-83
2021/04/24 10:37:04;;;;;;;5.73;3.30;;;10.80;62.90;;;;;;5034998;28;20017;-84
2021/04/24 10:39:36;;;;;;;6.17;3.07;;;10.90;63.40;;;;;;5034787;28;20032;-84
2021/04/24 10:42:07;;;;;;;5.60;3.17;;;10.90;63.50;;;;;;5017396;28;20033;-84
2021/04/24 10:44:57;;;;;;;4.33;2.40;;;11.00;62.80;;;;;;5035635;28;20115;-84
2021/04/24 10:47:41;;;;;;;6.70;2.50;;;11.10;62.90;;;;;;5027306;28;20029;-84
2021/04/24 10:50:13;;;;;;;7.33;2.73;;;11.10;60.40;;;;;;5032956;28;20032;-84
2021/04/24 10:52:39;;;;;;;6.73;2.80;;;11.10;60.80;;;;;;5033512;28;20022;-84
2021/04/24 10:55:14;;;;;;;7.87;2.87;;;11.20;60.50;;;;;;5015391;28;20025;-84
2021/04/24 10:57:47;;;;;;;6.80;2.60;;;11.10;60.50;;;;;;5034315;28;20030;-83
2021/04/24 11:00:21;;;;;;;6.80;2.97;;;11.20;61.20;;;;;;5032322;28;20549;-83
2021/04/24 11:02:55;;;;;;;7.73;2.47;;;11.30;60.50;;;;;;5034885;28;20034;-85
2021/04/24 11:05:28;;;;;;;4.60;2.30;;;11.30;59.80;;;;;;5033282;28;20018;-83
2021/04/24 11:08:23;;;;;;;7.13;2.70;;;11.40;60.40;;;;;;5032994;28;20018;-84
2021/04/24 11:11:02;;;;;;;8.10;2.50;;;11.40;58.70;;;;;;5014510;28;20045;-83
2021/04/24 11:13:33;;;;;;;4.93;2.40;;;11.30;58.40;;;;;;5033684;28;20047;-84
2021/04/24 11:16:02;;;;;;;5.20;2.13;;;11.40;58.70;;;;;;5015309;28;20030;-85
2021/04/24 11:18:28;;;;;;;6.60;3.42;;;11.40;58.70;;;;;;5043983;28;20413;-83
2021/04/24 11:21:10;;;;;;;4.73;2.90;;;11.40;58.40;;;;;;5050915;28;20099;-85
2021/04/24 11:23:38;;;;;;;7.53;3.23;;;11.40;58.70;;;;;;5051228;28;20430;-85
2021/04/24 11:26:09;;;;;;;5.43;2.50;;;11.50;57.90;;;;;;5050998;28;20109;-86
2021/04/24 11:29:00;;;;;;;5.37;2.43;;;11.50;57.70;;;;;;5051055;28;20040;-86
2021/04/24 11:31:49;;;;;;;5.33;2.67;;;11.50;58.10;;;;;;5051475;28;20408;-83
2021/04/24 11:34:45;;;;;;;4.35;2.30;;;11.60;57.50;;;;;;5035167;28;20641;-84
2021/04/24 11:37:11;;;;;;;6.93;2.60;;;11.60;57.30;;;;;;5048740;28;20059;-84
2021/04/24 11:39:37;;;;;;;6.67;2.83;;;11.70;57.60;;;;;;5052799;28;20029;-84
2021/04/24 11:42:29;;;;;;;5.33;2.73;;;11.70;57.40;;;;;;5053216;28;20029;-84
2021/04/24 11:44:55;;;;;;;6.73;2.83;;;11.70;57.90;;;;;;5035481;28;20075;-84
2021/04/24 11:47:50;;;;;;;11.07;5.10;;;11.80;56.90;;;;;;5035508;28;20469;-84
2021/04/24 11:50:18;;;;;;;5.63;3.10;;;11.70;57.70;;;;;;5039615;28;20057;-83
2021/04/24 11:52:57;;;;;;;7.23;2.97;;;11.70;57.10;;;;;;5035878;28;20028;-84
2021/04/24 11:55:25;;;;;;;5.32;2.97;;;11.70;58.00;;;;;;5053659;28;20021;-84
2021/04/24 11:58:03;;;;;;;5.87;2.97;;;11.80;57.60;;;;;;5053276;28;20029;-84
2021/04/24 12:00:29;;;;;;;6.33;3.10;;;11.80;58.70;;;;;;5034049;28;20083;-83
2021/04/24 12:02:55;;;;;;;7.60;3.37;;;11.90;58.30;;;;;;5036003;28;20021;-83
2021/04/24 12:05:21;;;;;;;7.30;3.00;;;11.90;58.60;;;;;;5053803;28;20040;-83
2021/04/24 12:07:50;;;;;;;5.93;3.00;;;11.90;58.50;;;;;;5035971;28;20036;-85
2021/04/24 12:10:16;;;;;;;;;;;12.00;58.60;;;;;;5035450;28;20040;-83
2021/04/24 12:12:49;;;;;;;10.27;2.93;;;12.10;58.30;;;;;;5036178;28;19915;-83
2021/04/24 12:15:23;;;;;;;5.43;2.83;;;12.10;56.90;;;;;;5035724;28;20036;-83
2021/04/24 12:17:58;;;;;;;5.33;2.70;;;12.10;57.30;;;;;;5053832;28;20029;-83
2021/04/24 12:20:29;;;;;;;6.83;3.57;;;12.10;57.90;;;;;;5051709;28;20094;-83
2021/04/24 12:23:00;;;;;;;8.37;3.00;;;12.20;57.50;;;;;;5035466;28;20426;-83
2021/04/24 12:25:28;;;;;;;6.60;3.00;;;12.20;57.00;;;;;;5054404;28;20053;-85
2021/04/24 12:27:56;;;;;;;5.90;3.37;;;12.30;57.50;;;;;;5053712;28;20079;-84
2021/04/24 12:30:26;;;;;;;7.23;3.17;;;12.30;56.50;;;;;;5052888;28;20192;-84
2021/04/24 12:33:15;;;;;;;6.20;3.20;;;12.30;56.90;;;;;;5032710;28;20560;-86
2021/04/24 12:35:43;;;;;;;5.25;3.08;;;12.30;56.60;;;;;;5032139;28;20033;-84
2021/04/24 12:38:14;;;;;;;5.57;2.90;;;12.30;56.50;;;;;;5052981;28;20033;-83
2021/04/24 12:40:43;;;;;;;7.93;3.70;;;12.40;57.30;;;;;;5052919;28;20029;-83
2021/04/24 12:43:10;;;;;;;6.35;3.08;;;12.50;56.00;;;;;;5053529;28;20047;-84
2021/04/24 12:45:38;;;;;;;6.63;3.20;;;12.60;55.30;;;;;;5054157;28;20174;-84
2021/04/24 12:48:11;;;;;;;5.80;3.10;;;12.70;55.50;;;;;;5054170;28;20033;-84
2021/04/24 12:50:39;;;;;;;5.73;2.87;;;12.70;55.20;;;;;;5055431;28;20052;-84
2021/04/24 12:53:07;;;;;;;6.50;3.40;;;12.70;55.10;;;;;;5055842;28;20037;-84
2021/04/24 12:56:06;;;;;;;9.10;3.30;;;12.70;55.30;;;;;;5037787;28;20055;-83